Time;durP1;ratioP1;P1;durP2;ratioP2;P2;SDS_P1;SDS_P2;PMS_P1;PMS_P2;Temp;Humidity;BMP_temperature;BMP_pressure;BME280_temperature;BME280_humidity;BME280_pressure;Samples;Min_cycle;Max_cycle;Signal;HPM_P1;HPM_P2
2022/03/17 00:14:10;;;;;;;35.25;19.00;;;;;;;10.09;74.94;101893.56;4990000;28;20037;-83
2022/03/17 00:16:36;;;;;;;31.70;18.08;;;;;;;10.10;75.00;101884.00;4989942;28;20027;-79
2022/03/17 00:19:07;;;;;;;33.95;19.35;;;;;;;10.09;75.02;101898.75;4990758;28;20114;-79
2022/03/17 00:21:36;;;;;;;34.97;19.35;;;;;;;10.08;75.32;101888.28;4987905;28;20245;-79
2022/03/17 00:24:03;;;;;;;37.17;19.17;;;;;;;10.09;75.16;101892.66;4980797;28;20316;-79
2022/03/17 00:26:29;;;;;;;36.78;19.30;;;;;;;10.07;75.39;101892.59;5001726;28;20030;-79
2022/03/17 00:28:54;;;;;;;38.28;19.95;;;;;;;10.07;75.41;101889.09;4998630;28;20140;-79
2022/03/17 00:31:20;;;;;;;37.92;20.25;;;;;;;10.07;75.55;101889.09;4995460;28;20042;-79
2022/03/17 00:33:45;;;;;;;38.30;19.95;;;;;;;10.07;75.20;101884.78;5001688;28;20240;-79
2022/03/17 00:36:11;;;;;;;35.35;19.40;;;;;;;10.07;75.44;101889.09;4992854;28;20046;-79
2022/03/17 00:38:37;;;;;;;39.40;20.55;;;;;;;10.05;75.39;101885.53;4992932;28;20030;-79
2022/03/17 00:41:03;;;;;;;36.92;19.95;;;;;;;10.04;75.61;101888.97;4999425;28;20019;-79
2022/03/17 00:43:29;;;;;;;36.42;20.52;;;;;;;10.00;75.62;101894.88;5000943;28;20042;-79
2022/03/17 00:45:54;;;;;;;39.35;20.77;;;;;;;9.98;75.65;101896.50;4990774;28;20051;-79
2022/03/17 00:48:20;;;;;;;35.13;18.85;;;;;;;9.98;75.92;101899.09;4996839;28;20328;-79
2022/03/17 00:50:45;;;;;;;36.55;19.83;;;;;;;9.97;76.03;101895.63;4995093;28;20169;-79
2022/03/17 00:53:10;;;;;;;36.90;19.80;;;;;;;9.95;76.36;101886.88;4996269;28;20030;-79
2022/03/17 00:55:36;;;;;;;34.80;19.85;;;;;;;9.96;76.35;101905.97;5002895;28;20265;-79
2022/03/17 00:58:02;;;;;;;40.63;20.30;;;;;;;9.96;76.51;101900.75;4996704;28;20213;-79
2022/03/17 01:00:27;;;;;;;39.13;18.95;;;;;;;9.95;76.52;101901.56;4999081;28;20031;-79
2022/03/17 01:02:55;;;;;;;40.83;19.40;;;;;;;9.95;76.81;101914.59;4998947;28;20062;-79
2022/03/17 01:05:22;;;;;;;33.75;19.70;;;;;;;9.94;76.79;101908.50;4986109;28;20037;-79
2022/03/17 01:07:49;;;;;;;33.83;19.15;;;;;;;9.94;76.95;101902.44;4997501;28;20046;-79
2022/03/17 01:10:16;;;;;;;36.55;19.92;;;;;;;9.95;77.14;101904.19;4983622;28;20046;-79
2022/03/17 01:12:46;;;;;;;36.35;20.35;;;;;;;9.95;76.95;101905.09;4993570;28;20038;-79
2022/03/17 01:15:12;;;;;;;37.35;20.65;;;;;;;9.96;77.08;101905.97;4982508;28;20026;-79
2022/03/17 01:17:37;;;;;;;37.33;19.65;;;;;;;9.96;76.97;101911.19;4989022;28;20047;-82
2022/03/17 01:20:05;;;;;;;37.15;19.70;;;;;;;9.96;76.93;101906.84;4998146;28;20149;-83
2022/03/17 01:22:30;;;;;;;38.92;20.50;;;;;;;9.99;77.42;101895.69;4992150;28;20042;-83
2022/03/17 01:24:56;;;;;;;37.78;20.55;;;;;;;10.00;77.22;101907.88;4987445;28;20356;-82
2022/03/17 01:27:23;;;;;;;41.53;21.15;;;;;;;9.99;77.14;101887.88;4989716;28;20070;-82
2022/03/17 01:29:49;;;;;;;38.97;20.65;;;;;;;10.01;77.54;101892.31;4998383;28;20034;-83
2022/03/17 01:32:15;;;;;;;37.92;19.80;;;;;;;9.99;77.43;101896.56;5000172;28;20106;-83
2022/03/17 01:34:40;;;;;;;41.88;20.48;;;;;;;9.99;77.64;101898.28;4996240;28;20022;-83
2022/03/17 01:37:05;;;;;;;40.90;21.15;;;;;;;10.01;77.22;101902.75;4993868;28;20093;-83
2022/03/17 01:39:31;;;;;;;39.75;20.90;;;;;;;10.01;77.62;101901.88;5002648;28;20069;-82
2022/03/17 01:41:57;;;;;;;38.63;22.05;;;;;;;10.03;77.98;101897.59;4993132;28;20046;-83
2022/03/17 01:44:23;;;;;;;40.20;21.35;;;;;;;10.03;77.90;101893.28;5001938;28;20042;-82
2022/03/17 01:49:35;;;;;;;38.55;20.58;;;;;;;10.05;78.15;101898.53;5003935;28;20473;-82
2022/03/17 01:52:00;;;;;;;44.25;21.30;;;;;;;10.05;78.30;101898.53;4984970;28;20158;-83
2022/03/17 01:54:26;;;;;;;39.53;21.70;;;;;;;10.05;78.45;101904.66;4988552;28;20042;-82
2022/03/17 01:56:52;;;;;;;39.90;21.70;;;;;;;10.05;78.47;101896.84;4987263;28;20026;-83
2022/03/17 01:59:18;;;;;;;38.60;21.02;;;;;;;10.06;78.76;101896.00;4991330;28;20165;-83
2022/03/17 02:01:45;;;;;;;40.38;21.92;;;;;;;10.07;78.85;101895.19;4995733;28;20265;-82
2022/03/17 02:04:10;;;;;;;42.78;21.25;;;;;;;10.08;79.02;101888.28;4995844;28;20031;-82
2022/03/17 02:06:37;;;;;;;41.22;20.70;;;;;;;10.10;79.12;101890.09;4985005;28;20269;-82
2022/03/17 02:09:03;;;;;;;40.60;22.05;;;;;;;10.12;79.16;101891.88;4989128;28;20038;-82
2022/03/17 02:14:25;;;;;;;43.92;21.73;;;;;;;10.15;79.44;101899.84;4995338;28;20193;-82
2022/03/17 02:16:51;;;;;;;42.40;21.50;;;;;;;10.15;79.17;101900.72;4992196;28;20293;-79
2022/03/17 02:19:20;;;;;;;41.35;21.63;;;;;;;10.15;79.09;101903.31;4993719;28;20018;-79
2022/03/17 02:21:45;;;;;;;43.45;21.38;;;;;;;10.16;79.30;101909.44;4987394;28;20031;-79
2022/03/17 02:27:03;;;;;;;40.80;21.75;;;;;;;10.17;79.20;101908.63;4960125;28;20085;-79
2022/03/17 02:29:31;;;;;;;41.97;21.92;;;;;;;10.15;79.48;101911.13;4986286;28;20027;-79
2022/03/17 02:31:58;;;;;;;39.45;21.88;;;;;;;10.14;79.34;101917.19;4986712;28;20308;-79
2022/03/17 02:34:23;;;;;;;43.60;21.13;;;;;;;10.15;79.58;101921.53;4992071;28;20014;-79
2022/03/17 02:36:50;;;;;;;39.28;21.23;;;;;;;10.16;79.45;101923.34;4997034;28;20041;-79
2022/03/17 02:39:18;;;;;;;43.40;22.48;;;;;;;10.16;79.50;101927.66;4986900;28;20086;-79
2022/03/17 02:41:44;;;;;;;43.55;22.20;;;;;;;10.17;79.81;101924.25;4993455;28;20158;-79
2022/03/17 02:44:10;;;;;;;39.13;21.67;;;;;;;10.17;80.06;101932.94;4993348;28;20106;-79
2022/03/17 02:46:35;;;;;;;43.45;23.05;;;;;;;10.17;80.23;101937.25;4992151;28;20057;-79
2022/03/17 02:49:00;;;;;;;44.88;21.83;;;;;;;10.19;80.17;101935.59;4995297;28;20285;-79
2022/03/17 02:51:25;;;;;;;46.13;23.08;;;;;;;10.21;80.66;101945.28;4990558;28;20023;-79
2022/03/17 02:53:51;;;;;;;49.45;24.17;;;;;;;10.21;81.08;101950.47;4988321;28;20034;-79
2022/03/17 02:56:16;;;;;;;50.55;25.10;;;;;;;10.25;82.23;101947.19;4997161;28;20027;-79
2022/03/17 02:58:41;;;;;;;54.38;25.48;;;;;;;10.29;83.41;101952.53;4997394;28;20285;-79
2022/03/17 03:01:07;;;;;;;52.45;27.10;;;;;;;10.32;85.22;101958.75;5001551;28;20042;-79
2022/03/17 03:03:32;;;;;;;59.58;29.02;;;;;;;10.35;87.35;101966.72;4989176;28;20026;-79
2022/03/17 03:05:57;;;;;;;59.88;29.17;;;;;;;10.36;87.81;101980.66;4996779;28;20030;-79
2022/03/17 03:08:24;;;;;;;63.80;29.73;;;;;;;10.36;87.80;101970.22;4986548;28;20037;-79
2022/03/17 03:10:49;;;;;;;61.97;30.27;;;;;;;10.36;87.65;101985.88;4992275;28;20029;-79
2022/03/17 03:13:15;;;;;;;55.22;27.98;;;;;;;10.36;87.74;101993.69;4990467;28;20026;-79
2022/03/17 03:15:40;;;;;;;56.55;26.75;;;;;;;10.35;88.49;101994.50;4995390;28;20034;-79
2022/03/17 03:18:05;;;;;;;46.10;24.00;;;;;;;10.32;88.77;102009.97;4994778;28;20041;-79
2022/03/17 03:20:31;;;;;;;43.53;22.17;;;;;;;10.30;89.03;102019.41;5001209;28;20018;-79
2022/03/17 03:22:57;;;;;;;37.88;19.98;;;;;;;10.24;89.35;102028.75;4995296;28;20106;-79
2022/03/17 03:25:22;;;;;;;35.00;18.98;;;;;;;10.18;89.88;102033.69;4992264;28;20220;-79
2022/03/17 03:27:48;;;;;;;33.65;17.80;;;;;;;10.13;90.07;102031.72;4992411;28;20068;-78
2022/03/17 03:30:14;;;;;;;23.40;13.73;;;;;;;10.07;89.52;102034.94;4992644;28;20018;-78
2022/03/17 03:32:42;;;;;;;23.30;12.68;;;;;;;10.01;89.60;102042.47;4999471;28;20085;-78
2022/03/17 03:37:54;;;;;;;19.67;11.32;;;;;;;9.89;89.78;102053.19;4991188;28;20096;-78
2022/03/17 03:40:19;;;;;;;20.77;12.20;;;;;;;9.82;89.91;102062.44;4992613;28;20038;-79
2022/03/17 03:42:45;;;;;;;20.88;12.85;;;;;;;9.79;90.19;102064.00;4994334;28;20108;-78
2022/03/17 03:45:10;;;;;;;22.45;12.80;;;;;;;9.73;90.05;102070.72;4992397;28;20038;-78
2022/03/17 03:47:35;;;;;;;21.77;13.35;;;;;;;9.68;90.24;102080.00;4989446;28;20257;-78
2022/03/17 03:50:02;;;;;;;22.92;13.85;;;;;;;9.67;90.45;102092.94;4995120;28;20062;-78
2022/03/17 03:52:27;;;;;;;23.30;14.30;;;;;;;9.63;90.29;102096.22;4981963;28;20287;-78
2022/03/17 03:54:53;;;;;;;25.65;15.25;;;;;;;9.56;90.29;102116.75;4982354;28;20023;-78
2022/03/17 03:57:18;;;;;;;34.22;19.35;;;;;;;9.52;89.44;102120.03;4985844;28;20034;-82
2022/03/17 03:59:43;;;;;;;37.90;20.65;;;;;;;9.49;88.67;102126.81;4983053;28;20037;-82
2022/03/17 04:02:10;;;;;;;46.30;23.52;;;;;;;9.40;87.98;102128.13;4984738;28;20400;-82
2022/03/17 04:04:39;;;;;;;44.60;21.60;;;;;;;9.32;88.06;102138.97;4992549;28;20031;-82
2022/03/17 04:07:08;;;;;;;39.25;21.25;;;;;;;9.27;88.13;102158.66;4987152;28;20027;-81
2022/03/17 04:09:35;;;;;;;39.67;21.08;;;;;;;9.20;88.02;102150.53;4989743;28;20261;-81
2022/03/17 04:12:03;;;;;;;39.15;20.00;;;;;;;9.15;88.42;102162.44;4986771;28;20026;-81
2022/03/17 04:14:30;;;;;;;38.40;20.20;;;;;;;9.11;88.58;102168.28;5005366;28;20042;-81
2022/03/17 04:16:55;;;;;;;39.00;19.05;;;;;;;9.07;88.71;102174.16;5005629;28;20061;-81
2022/03/17 04:19:21;;;;;;;39.55;19.00;;;;;;;9.05;88.56;102186.16;5003330;28;20169;-81
2022/03/17 04:21:48;;;;;;;37.63;19.23;;;;;;;9.01;88.38;102189.44;4998018;28;20046;-81
2022/03/17 04:24:15;;;;;;;34.47;17.38;;;;;;;8.97;88.36;102197.88;5003943;28;20281;-82
2022/03/17 04:26:41;;;;;;;36.85;17.90;;;;;;;8.88;88.37;102208.69;4997531;28;20093;-83
2022/03/17 04:29:09;;;;;;;33.47;16.27;;;;;;;8.79;88.40;102221.19;5005583;28;20026;-81
2022/03/17 04:31:35;;;;;;;34.22;16.42;;;;;;;8.70;88.54;102225.13;4997021;28;20336;-81
2022/03/17 04:34:01;;;;;;;27.48;15.43;;;;;;;8.65;88.71;102225.69;5003178;28;20027;-81
2022/03/17 04:36:26;;;;;;;31.80;15.18;;;;;;;8.59;88.59;102233.13;4984360;28;20298;-81
2022/03/17 04:38:52;;;;;;;30.55;15.10;;;;;;;8.53;89.04;102247.56;4991200;28;20033;-81
2022/03/17 04:41:18;;;;;;;33.88;16.20;;;;;;;8.48;88.72;102248.13;4997856;28;20050;-82
2022/03/17 04:43:44;;;;;;;35.58;16.90;;;;;;;8.46;89.06;102268.84;5005217;28;21970;-82
2022/03/17 04:46:09;;;;;;;36.58;16.65;;;;;;;8.44;89.00;102273.03;4991085;28;20051;-81
2022/03/17 04:48:36;;;;;;;36.15;16.98;;;;;;;8.44;88.76;102277.31;4988878;28;20060;-81
2022/03/17 04:51:02;;;;;;;36.53;17.17;;;;;;;8.42;88.50;102289.31;4995721;28;20117;-81
2022/03/17 04:53:27;;;;;;;37.05;16.75;;;;;;;8.41;88.46;102288.41;5001011;28;20173;-81
2022/03/17 04:56:04;;;;;;;40.17;18.00;;;;;;;8.40;87.80;102297.03;4995871;28;20031;-81
2022/03/17 04:58:32;;;;;;;40.05;19.00;;;;;;;8.36;87.82;102298.56;5002675;28;20106;-78
2022/03/17 05:00:59;;;;;;;42.60;20.80;;;;;;;8.36;87.52;102310.66;4999738;28;20085;-78
2022/03/17 05:03:24;;;;;;;47.80;20.92;;;;;;;8.33;87.16;102311.38;5002778;28;20057;-78
2022/03/17 05:05:50;;;;;;;44.03;18.90;;;;;;;8.31;86.76;102325.06;4990187;28;20031;-78
2022/03/17 05:08:16;;;;;;;41.13;19.38;;;;;;;8.26;86.55;102329.13;4999640;28;20228;-78
2022/03/17 05:10:42;;;;;;;33.45;16.90;;;;;;;8.25;86.09;102342.91;5000939;28;20038;-78
2022/03/17 05:13:08;;;;;;;34.10;16.88;;;;;;;8.22;85.94;102337.53;5002474;28;20182;-78
2022/03/17 05:15:35;;;;;;;30.40;15.15;;;;;;;8.18;85.91;102355.53;4993507;28;20092;-78
2022/03/17 05:18:01;;;;;;;30.63;13.95;;;;;;;8.17;85.44;102371.03;4999253;28;20228;-78
2022/03/17 05:20:26;;;;;;;28.33;13.10;;;;;;;8.16;85.05;102375.31;4995102;28;20316;-78
2022/03/17 05:22:52;;;;;;;26.77;12.50;;;;;;;8.15;84.33;102381.34;4997279;28;20132;-78
2022/03/17 05:25:19;;;;;;;23.13;10.50;;;;;;;8.10;83.91;102390.53;4990699;28;20122;-78
2022/03/17 05:27:46;;;;;;;21.70;10.43;;;;;;;8.09;83.97;102386.16;5004413;28;20037;-78
2022/03/17 05:30:13;;;;;;;22.27;10.23;;;;;;;8.07;83.32;102398.16;5000136;28;20038;-78
2022/03/17 05:32:48;;;;;;;19.73;9.52;;;;;;;8.05;83.23;102404.06;5000870;28;20077;-78
2022/03/17 05:35:16;;;;;;;17.23;8.77;;;;;;;8.01;82.96;102406.47;4989018;28;20097;-78
2022/03/17 05:37:41;;;;;;;15.80;8.77;;;;;;;8.04;83.01;102417.81;4997589;28;20054;-78
2022/03/17 05:40:13;;;;;;;23.50;9.52;;;;;;;8.03;83.30;102422.13;4985645;28;20034;-78
2022/03/17 05:42:39;;;;;;;20.10;9.98;;;;;;;8.04;82.79;102430.81;4986646;28;20019;-78
2022/03/17 05:45:04;;;;;;;18.58;10.27;;;;;;;8.03;82.57;102439.44;4993915;28;20378;-78
2022/03/17 05:47:41;;;;;;;21.90;10.70;;;;;;;8.03;82.96;102447.22;4987016;28;20277;-78
2022/03/17 05:50:09;;;;;;;18.92;10.10;;;;;;;7.99;82.75;102457.41;4975694;28;20034;-78
2022/03/17 05:52:38;;;;;;;23.63;10.00;;;;;;;7.98;82.65;102470.28;4981309;28;20074;-78
2022/03/17 05:55:05;;;;;;;18.95;9.57;;;;;;;7.96;82.27;102469.28;4993932;28;20320;-78
2022/03/17 05:57:30;;;;;;;20.25;9.40;;;;;;;7.94;82.61;102476.09;4989764;28;20248;-78
2022/03/17 05:59:56;;;;;;;18.92;9.52;;;;;;;7.91;82.54;102470.72;4997087;28;20033;-78
2022/03/17 06:02:21;;;;;;;18.80;9.75;;;;;;;7.92;82.97;102493.25;4999477;28;20046;-78
2022/03/17 06:04:47;;;;;;;19.50;9.27;;;;;;;7.91;83.42;102481.13;4983105;28;20277;-78
2022/03/17 06:07:12;;;;;;;15.68;8.27;;;;;;;7.90;82.47;102495.78;4988014;28;20286;-78
2022/03/17 06:09:38;;;;;;;16.13;8.63;;;;;;;7.90;82.13;102502.66;4996102;28;20035;-78
2022/03/17 06:12:05;;;;;;;15.57;6.70;;;;;;;7.88;81.76;102509.44;4995903;28;20033;-78
2022/03/17 06:14:32;;;;;;;14.02;6.32;;;;;;;7.86;81.90;102518.84;4997230;28;20027;-78
2022/03/17 06:16:58;;;;;;;8.73;5.75;;;;;;;7.84;81.45;102522.25;4992022;28;20031;-78
2022/03/17 06:19:23;;;;;;;12.30;5.72;;;;;;;7.82;81.40;102528.13;4997314;28;20050;-79
2022/03/17 06:21:49;;;;;;;11.13;5.13;;;;;;;7.80;81.56;102533.22;4994420;28;20080;-78
2022/03/17 06:24:14;;;;;;;14.93;5.55;;;;;;;7.79;81.42;102535.72;4988342;28;20137;-78
2022/03/17 06:26:39;;;;;;;13.13;5.32;;;;;;;7.76;81.87;102545.91;4988193;28;20038;-78
2022/03/17 06:29:05;;;;;;;12.85;5.82;;;;;;;7.77;81.99;102545.13;4997122;28;20049;-78
2022/03/17 06:31:30;;;;;;;14.73;5.20;;;;;;;7.76;82.31;102565.00;4992303;28;20165;-78
2022/03/17 06:33:55;;;;;;;17.30;6.68;;;;;;;7.72;82.39;102563.00;5001900;28;20300;-78
2022/03/17 06:36:21;;;;;;;12.32;6.35;;;;;;;7.68;83.10;102566.22;4989617;28;20061;-78
2022/03/17 06:38:46;;;;;;;12.80;7.22;;;;;;;7.66;82.97;102571.31;4996366;28;20018;-78
2022/03/17 06:41:12;;;;;;;12.98;7.13;;;;;;;7.67;83.06;102590.34;4987874;28;20049;-78
2022/03/17 06:43:37;;;;;;;12.73;6.60;;;;;;;7.68;83.13;102601.66;4987465;28;20378;-78
2022/03/17 06:46:02;;;;;;;11.52;5.68;;;;;;;7.66;82.05;102588.53;4992154;28;20034;-78
2022/03/17 06:48:28;;;;;;;11.43;5.32;;;;;;;7.67;82.48;102603.31;5003446;28;20038;-79
2022/03/17 06:50:53;;;;;;;9.07;4.80;;;;;;;7.68;82.22;102604.25;4987632;28;20229;-78
2022/03/17 06:53:18;;;;;;;12.27;4.50;;;;;;;7.69;82.10;102612.13;4995223;28;20026;-78
2022/03/17 06:55:44;;;;;;;11.45;4.88;;;;;;;7.70;81.54;102615.59;4992640;28;20041;-78
2022/03/17 06:58:09;;;;;;;10.70;4.15;;;;;;;7.67;80.78;102621.47;4994654;28;20038;-79
2022/03/17 07:00:34;;;;;;;10.48;3.60;;;;;;;7.67;81.11;102621.47;4991454;28;20026;-79
2022/03/17 07:03:00;;;;;;;11.43;3.25;;;;;;;7.70;80.49;102631.16;4995351;28;20030;-79
2022/03/17 07:05:25;;;;;;;10.15;3.45;;;;;;;7.68;80.54;102638.84;4988198;28;20033;-78
2022/03/17 07:07:50;;;;;;;9.63;2.95;;;;;;;7.69;79.86;102637.16;5003120;28;20033;-81
2022/03/17 07:10:16;;;;;;;9.13;3.05;;;;;;;7.69;80.63;102645.84;4988369;28;20027;-81
2022/03/17 07:12:43;;;;;;;11.43;2.90;;;;;;;7.70;80.07;102646.72;4992578;28;20030;-82
2022/03/17 07:15:10;;;;;;;10.43;2.83;;;;;;;7.70;80.16;102654.53;4989148;28;20019;-81
2022/03/17 07:17:39;;;;;;;9.15;2.65;;;;;;;7.69;80.51;102668.28;4991935;28;20303;-82
2022/03/17 07:20:05;;;;;;;;;;;;;;;7.75;80.55;102668.66;4993863;28;20184;-82
2022/03/17 07:22:30;;;;;;;8.45;2.47;;;;;;;7.72;80.78;102681.44;4991281;28;19949;-82
2022/03/17 07:24:56;;;;;;;10.95;2.50;;;;;;;7.72;81.15;102678.84;4988178;28;20065;-81
2022/03/17 07:27:21;;;;;;;11.63;2.72;;;;;;;7.70;81.56;102683.06;4996911;28;20284;-81
2022/03/17 07:29:51;;;;;;;13.77;2.63;;;;;;;7.65;81.96;102695.75;4988800;28;20030;-81
2022/03/17 07:32:18;;;;;;;11.35;3.17;;;;;;;7.63;82.96;102705.09;4987300;28;20090;-81
2022/03/17 07:34:44;;;;;;;11.55;2.70;;;;;;;7.61;83.77;102704.13;4990489;28;20039;-81
2022/03/17 07:37:09;;;;;;;7.72;2.75;;;;;;;7.60;83.60;102707.50;5003949;28;20146;-78
2022/03/17 07:39:34;;;;;;;12.02;2.58;;;;;;;7.60;83.45;102718.78;5001088;28;20034;-78
2022/03/17 07:42:00;;;;;;;12.10;2.70;;;;;;;7.57;83.11;102723.75;4999441;28;20033;-78
2022/03/17 07:44:26;;;;;;;10.07;2.53;;;;;;;7.58;83.59;102730.75;5002380;28;20050;-78
2022/03/17 07:46:51;;;;;;;8.40;2.20;;;;;;;7.57;83.35;102728.06;5004983;28;20025;-78
2022/03/17 07:49:16;;;;;;;7.78;2.35;;;;;;;7.59;83.46;102731.63;4992464;28;20022;-78
2022/03/17 07:51:42;;;;;;;9.77;2.67;;;;;;;7.59;83.61;102729.97;4992898;28;20026;-78
2022/03/17 07:54:08;;;;;;;7.97;2.20;;;;;;;7.62;83.17;102731.88;4998001;28;20061;-78
2022/03/17 07:56:34;;;;;;;9.45;2.80;;;;;;;7.63;83.20;102739.75;4995137;28;20325;-78
2022/03/17 07:59:00;;;;;;;9.82;2.40;;;;;;;7.66;83.42;102744.22;4992277;28;20336;-78
2022/03/17 08:01:26;;;;;;;13.00;2.65;;;;;;;7.68;82.64;102753.00;4994776;28;20046;-78
2022/03/17 08:03:55;;;;;;;8.88;2.15;;;;;;;7.69;81.08;102754.81;4994740;28;20114;-78
2022/03/17 08:06:22;;;;;;;11.53;2.57;;;;;;;7.71;81.67;102763.59;4995806;28;20033;-78
2022/03/17 08:08:47;;;;;;;11.07;2.40;;;;;;;7.73;81.84;102771.47;4991549;28;20297;-78
2022/03/17 08:11:12;;;;;;;11.55;2.00;;;;;;;7.76;81.77;102771.69;4987462;28;20046;-78
2022/03/17 08:13:38;;;;;;;8.38;2.03;;;;;;;7.78;80.93;102772.69;4995581;28;20037;-79
2022/03/17 08:16:04;;;;;;;12.85;2.42;;;;;;;7.78;80.92;102781.38;4984876;28;20077;-79
2022/03/17 08:18:32;;;;;;;10.98;2.00;;;;;;;7.78;80.42;102786.56;4989786;28;20034;-79
2022/03/17 08:20:57;;;;;;;11.77;2.25;;;;;;;7.79;80.49;102787.44;4987956;28;20093;-79
2022/03/17 08:23:23;;;;;;;8.32;1.90;;;;;;;7.82;80.09;102795.44;4988752;28;20047;-78
2022/03/17 08:25:49;;;;;;;13.00;2.10;;;;;;;7.83;79.79;102811.13;4982145;28;20295;-78
2022/03/17 08:28:17;;;;;;;10.88;2.05;;;;;;;7.87;80.26;102816.53;4980086;28;20092;-78
2022/03/17 08:30:42;;;;;;;9.35;2.30;;;;;;;7.91;80.14;102824.59;4979242;28;20043;-78
2022/03/17 08:33:08;;;;;;;9.77;2.03;;;;;;;7.95;79.25;102825.69;4990866;28;20030;-78
2022/03/17 08:35:33;;;;;;;8.65;1.85;;;;;;;7.99;79.36;102826.03;4988664;28;20181;-79
2022/03/17 08:37:58;;;;;;;9.82;1.75;;;;;;;8.04;78.22;102834.13;5000125;28;20032;-79
2022/03/17 08:40:24;;;;;;;8.40;1.73;;;;;;;8.09;77.04;102844.78;5002618;28;20038;-79
2022/03/17 08:42:50;;;;;;;8.68;1.73;;;;;;;8.11;76.59;102838.91;5003606;28;20315;-79
2022/03/17 08:51:01;;;;;;;7.65;1.42;;;;;;;8.19;75.24;102862.78;4963779;28;20077;-79
2022/03/17 08:53:26;;;;;;;12.00;1.90;;;;;;;8.18;75.31;102867.09;4997910;28;20281;-79
2022/03/17 08:55:52;;;;;;;14.23;2.00;;;;;;;8.20;75.38;102864.59;4990835;28;20022;-79
2022/03/17 08:58:17;;;;;;;10.70;1.50;;;;;;;8.20;75.26;102869.78;4981337;28;20027;-79
2022/03/17 09:00:44;;;;;;;8.57;1.70;;;;;;;8.21;74.86;102878.47;4989237;28;20026;-79
2022/03/17 09:03:09;;;;;;;7.20;1.70;;;;;;;8.21;74.86;102881.06;4988187;28;20030;-79
2022/03/17 09:05:35;;;;;;;6.38;1.88;;;;;;;8.20;74.50;102880.16;4985809;28;20113;-79
2022/03/17 09:08:03;;;;;;;8.05;1.80;;;;;;;8.22;75.49;102882.88;4993530;28;20328;-79
2022/03/17 09:10:28;;;;;;;11.43;2.10;;;;;;;8.23;74.36;102884.66;4974900;28;20155;-79
2022/03/17 09:12:57;;;;;;;10.23;2.13;;;;;;;8.25;74.53;102888.25;4989160;28;20033;-79
2022/03/17 09:15:24;;;;;;;11.38;2.22;;;;;;;8.28;75.42;102896.25;4991814;28;20022;-79
2022/03/17 09:17:50;;;;;;;5.90;1.58;;;;;;;8.30;74.84;102899.84;4989923;28;20027;-79
2022/03/17 09:20:16;;;;;;;8.45;1.75;;;;;;;8.31;74.12;102907.75;4988838;28;20038;-79
2022/03/17 09:22:44;;;;;;;12.15;2.05;;;;;;;8.32;73.48;102919.03;4993905;28;20249;-79
2022/03/17 09:25:14;;;;;;;8.60;1.93;;;;;;;8.33;73.08;102919.13;4986625;28;20062;-79
2022/03/17 09:27:40;;;;;;;8.18;2.10;;;;;;;8.35;72.99;102917.50;4983694;28;20508;-79
2022/03/17 09:30:05;;;;;;;11.65;1.88;;;;;;;8.35;72.33;102914.91;4990063;28;20273;-79
2022/03/17 09:32:31;;;;;;;12.68;2.00;;;;;;;8.39;73.36;102918.63;4997157;28;20071;-79
2022/03/17 09:34:58;;;;;;;12.88;2.80;;;;;;;8.40;72.62;102928.25;4987536;28;20082;-79
2022/03/17 09:37:27;;;;;;;12.95;1.95;;;;;;;8.41;72.76;102931.72;4985035;28;20073;-79
2022/03/17 09:39:52;;;;;;;8.02;1.70;;;;;;;8.43;71.42;102933.63;4996634;28;20026;-79
2022/03/17 09:42:22;;;;;;;9.70;1.67;;;;;;;8.44;71.82;102934.53;4997796;28;20138;-79
2022/03/17 09:44:55;;;;;;;7.55;1.70;;;;;;;8.47;72.02;102940.88;4990200;28;20073;-79
2022/03/17 09:47:22;;;;;;;10.20;1.70;;;;;;;8.49;72.18;102944.44;4984956;28;20081;-79
2022/03/17 09:49:49;;;;;;;11.82;1.92;;;;;;;8.52;71.86;102942.06;4994701;28;20026;-79
2022/03/17 09:52:17;;;;;;;7.70;1.67;;;;;;;8.57;72.18;102949.25;4977369;28;20057;-74
2022/03/17 09:54:44;;;;;;;6.57;1.60;;;;;;;8.59;71.10;102955.44;4980273;28;20059;-74
2022/03/17 09:57:10;;;;;;;7.93;2.05;;;;;;;8.59;70.86;102958.03;4994136;28;20045;-74
2022/03/17 09:59:36;;;;;;;8.68;1.80;;;;;;;8.59;70.58;102964.16;4984565;28;20058;-74
2022/03/17 10:02:02;;;;;;;9.50;1.70;;;;;;;8.57;70.30;102964.84;4982802;28;20027;-74
2022/03/17 10:04:31;;;;;;;9.38;1.70;;;;;;;8.60;71.33;102976.31;4987560;28;20095;-74
2022/03/17 10:06:58;;;;;;;;;;;;;;;8.65;72.68;102977.53;4993816;28;20050;-74
2022/03/17 10:09:24;;;;;;;7.03;2.25;;;;;;;8.65;71.33;102989.66;4991467;28;19985;-74
2022/03/17 10:12:00;;;;;;;8.82;2.10;;;;;;;8.65;70.33;102989.66;5001032;28;20067;-74
2022/03/17 10:14:39;;;;;;;7.78;1.98;;;;;;;8.67;70.84;103001.91;4980846;28;20026;-74
2022/03/17 10:17:06;;;;;;;11.48;2.25;;;;;;;8.70;71.11;103001.22;4985861;28;20054;-75
2022/03/17 10:19:33;;;;;;;8.68;1.95;;;;;;;8.72;71.09;102999.66;4983571;28;20278;-77
2022/03/17 10:22:14;;;;;;;9.75;2.17;;;;;;;8.76;71.97;103005.94;4979066;28;20050;-76
2022/03/17 10:24:59;;;;;;;7.80;1.67;;;;;;;8.84;71.78;103016.03;4990508;28;20022;-78
2022/03/17 10:27:39;;;;;;;8.40;2.10;;;;;;;8.90;72.56;103022.47;4998043;28;20038;-79
2022/03/17 10:30:07;;;;;;;;;;;;;;;8.97;72.53;103035.06;4984143;28;20031;-78
2022/03/17 10:32:33;;;;;;;8.30;2.10;;;;;;;8.97;72.42;103029.84;4984095;28;20180;-78
2022/03/17 10:34:58;;;;;;;12.50;2.45;;;;;;;8.99;70.85;103030.84;4982934;28;20026;-78
2022/03/17 10:37:25;;;;;;;11.32;2.55;;;;;;;9.01;70.50;103034.47;4980059;28;20217;-78
2022/03/17 10:39:55;;;;;;;13.13;2.50;;;;;;;9.03;70.58;103045.84;4983480;28;21625;-78
2022/03/17 10:42:22;;;;;;;8.07;2.05;;;;;;;9.04;69.77;103050.25;4995874;28;20037;-79
2022/03/17 10:44:55;;;;;;;9.13;2.47;;;;;;;9.04;70.11;103045.94;4996684;28;20034;-83
2022/03/17 10:47:37;;;;;;;6.70;2.10;;;;;;;9.06;69.32;103046.06;5003129;28;20046;-77
2022/03/17 10:50:13;;;;;;;13.43;2.30;;;;;;;9.09;69.51;103050.56;4988517;28;20276;-77
2022/03/17 10:52:58;;;;;;;8.95;2.25;;;;;;;9.14;70.68;103055.25;4972202;28;20015;-77
2022/03/17 10:55:29;;;;;;;11.05;2.33;;;;;;;9.15;70.46;103057.06;4983982;28;20065;-76
2022/03/17 10:58:16;;;;;;;8.85;2.60;;;;;;;9.18;69.02;103064.16;4981472;28;20054;-77
2022/03/17 11:00:59;;;;;;;8.85;2.40;;;;;;;9.19;70.07;103071.16;4981861;28;20050;-76
2022/03/17 11:03:25;;;;;;;10.20;2.38;;;;;;;9.16;68.46;103078.78;4980922;28;20054;-76
2022/03/17 11:05:53;;;;;;;11.43;2.65;;;;;;;9.16;69.92;103089.16;4992427;28;20322;-77
2022/03/17 11:08:22;;;;;;;5.63;2.33;;;;;;;9.17;68.51;103091.88;5000812;28;20089;-77
2022/03/17 11:10:49;;;;;;;6.47;2.25;;;;;;;9.20;67.59;103097.28;4990699;28;20051;-76
2022/03/17 11:13:14;;;;;;;8.30;2.80;;;;;;;9.25;68.02;103104.47;4984144;28;20261;-77
2022/03/17 11:16:05;;;;;;;6.45;2.38;;;;;;;9.31;68.39;103100.59;4996175;28;20022;-77
2022/03/17 11:18:38;;;;;;;6.70;2.50;;;;;;;9.36;67.91;103101.78;4978740;28;20030;-78
2022/03/17 11:21:16;;;;;;;10.15;2.40;;;;;;;9.44;68.27;103098.75;4998028;28;20035;-78
2022/03/17 11:23:59;;;;;;;9.15;2.60;;;;;;;9.50;68.57;103107.88;4990298;28;20212;-78
2022/03/17 11:26:34;;;;;;;7.32;2.58;;;;;;;9.54;66.65;103109.88;4993275;28;20022;-78
2022/03/17 11:29:21;;;;;;;10.52;3.00;;;;;;;9.57;67.81;103116.97;5004750;28;20026;-78
2022/03/17 11:31:56;;;;;;;5.97;2.40;;;;;;;9.55;65.57;103122.06;4994009;28;20019;-78
2022/03/17 11:34:47;;;;;;;6.60;2.70;;;;;;;9.56;66.77;103113.47;4994345;28;20077;-78
2022/03/17 11:37:20;;;;;;;6.90;2.45;;;;;;;9.62;67.10;103115.56;4985264;28;20212;-78
2022/03/17 11:39:54;;;;;;;9.05;3.03;;;;;;;9.67;66.93;103123.66;5001058;28;20052;-78
2022/03/17 11:42:32;;;;;;;10.88;2.70;;;;;;;9.70;65.96;103126.47;5006464;28;20181;-78
2022/03/17 11:45:10;;;;;;;8.10;2.90;;;;;;;9.72;65.52;103130.09;5001067;28;20105;-78
2022/03/17 11:47:47;;;;;;;7.38;2.70;;;;;;;9.72;64.72;103128.38;4990250;28;20261;-77
2022/03/17 11:50:37;;;;;;;7.10;2.78;;;;;;;9.73;65.54;103134.47;4986721;28;20089;-77
2022/03/17 11:53:05;;;;;;;7.65;3.25;;;;;;;9.73;64.97;103131.88;4992508;28;20032;-77